createdAt,value
2018-09-21T00:00:57.171Z,596.95
2018-09-21T00:02:59.449Z,590.62
2018-09-21T00:05:01.740Z,598.15
2018-09-21T00:07:04.000Z,600.50
2018-09-21T00:09:06.279Z,581.60
2018-09-21T00:11:08.603Z,576.98
2018-09-21T00:13:10.873Z,585.00
2018-09-21T00:15:13.179Z,575.65
2018-09-21T00:17:15.434Z,583.75
2018-09-21T00:19:17.750Z,577.67
2018-09-21T00:21:20.038Z,569.73
2018-09-21T00:23:22.340Z,593.42
2018-09-21T00:25:24.616Z,588.42
2018-09-21T00:27:26.869Z,587.05
2018-09-21T00:29:29.123Z,574.45
2018-09-21T00:31:31.416Z,598.40
2018-09-21T00:33:33.697Z,581.05
2018-09-21T00:35:35.970Z,580.63
2018-09-21T00:37:38.243Z,586.85
2018-09-21T00:39:40.547Z,584.37
2018-09-21T00:41:42.800Z,594.45
2018-09-21T00:43:45.067Z,581.02
2018-09-21T00:45:47.361Z,591.25
2018-09-21T00:47:49.657Z,583.75
2018-09-21T00:49:51.915Z,577.02
2018-09-21T00:51:54.211Z,577.58
2018-09-21T00:53:56.511Z,579.65
2018-09-21T00:55:58.750Z,576.33
2018-09-21T00:58:01.027Z,579.83
2018-09-21T01:00:03.432Z,571.00
2018-09-21T01:02:05.712Z,571.50
2018-09-21T01:04:07.965Z,570.85
2018-09-21T01:06:10.226Z,554.25
2018-09-21T01:08:12.544Z,561.47
2018-09-21T01:10:14.840Z,547.87
2018-09-21T01:12:17.111Z,560.73
2018-09-21T01:14:19.386Z,552.58
2018-09-21T01:16:21.666Z,555.98
2018-09-21T01:18:23.928Z,557.10
2018-09-21T01:20:26.228Z,570.67
2018-09-21T01:22:28.512Z,552.13
2018-09-21T01:24:30.796Z,545.35
2018-09-21T01:26:33.054Z,546.70
2018-09-21T01:28:35.349Z,545.85
2018-09-21T01:30:37.635Z,532.25
2018-09-21T01:32:39.909Z,539.40
2018-09-21T01:34:42.142Z,546.35
2018-09-21T01:36:44.441Z,547.65
2018-09-21T01:38:46.701Z,537.65
2018-09-21T01:40:48.963Z,532.40
2018-09-21T01:42:51.254Z,530.83
2018-09-21T01:44:53.547Z,545.33
2018-09-21T01:46:55.802Z,537.72
2018-09-21T01:48:58.098Z,527.97
2018-09-21T01:51:00.382Z,516.62
2018-09-21T01:53:02.671Z,529.17
2018-09-21T01:55:04.984Z,516.35
2018-09-21T01:57:07.261Z,531.95
2018-09-21T01:59:09.502Z,517.17
2018-09-21T02:01:11.777Z,518.50
2018-09-21T02:03:14.032Z,505.55
2018-09-21T02:05:16.320Z,523.05
2018-09-21T02:07:18.593Z,528.55
2018-09-21T02:09:20.876Z,522.17
2018-09-21T02:11:23.119Z,512.40
2018-09-21T02:13:25.387Z,525.10
2018-09-21T02:15:27.667Z,517.65
2018-09-21T02:17:29.946Z,507.30
2018-09-21T02:19:32.203Z,510.87
2018-09-21T02:21:34.474Z,499.55
2018-09-21T02:23:36.719Z,502.70
2018-09-21T02:25:39.022Z,506.05
2018-09-21T02:27:41.304Z,495.92
2018-09-21T02:29:43.602Z,489.15
2018-09-21T02:31:45.854Z,484.00
2018-09-21T02:33:48.125Z,465.75
2018-09-21T02:35:50.410Z,477.60
2018-09-21T02:37:52.670Z,484.90
2018-09-21T02:39:54.927Z,472.87
2018-09-21T02:41:57.223Z,483.95
2018-09-21T02:43:59.871Z,471.20
2018-09-21T02:46:02.153Z,467.27
2018-09-21T02:48:04.423Z,474.38
2018-09-21T02:50:06.671Z,469.30
2018-09-21T02:52:08.961Z,476.52
2018-09-21T02:54:11.227Z,467.03
2018-09-21T02:56:13.524Z,456.47
2018-09-21T02:58:15.811Z,473.35
2018-09-21T03:00:18.125Z,474.08
2018-09-21T03:02:20.780Z,478.18
2018-09-21T03:04:23.062Z,451.37
2018-09-21T03:06:25.354Z,455.57
2018-09-21T03:08:27.602Z,462.27
2018-09-21T03:10:29.895Z,437.88
2018-09-21T03:12:32.133Z,436.95
2018-09-21T03:14:34.420Z,432.70
2018-09-21T03:16:36.673Z,411.50
2018-09-21T03:18:38.956Z,417.70
2018-09-21T03:20:41.262Z,421.90
2018-09-21T03:22:43.527Z,399.73
2018-09-21T03:24:45.803Z,397.48
2018-09-21T03:26:48.068Z,372.12
2018-09-21T03:28:50.340Z,397.50
2018-09-21T03:30:52.592Z,382.87
2018-09-21T03:32:54.882Z,384.15
2018-09-21T03:34:57.131Z,395.50
2018-09-21T03:36:59.386Z,378.07
2018-09-21T03:39:01.696Z,366.20
2018-09-21T03:41:03.956Z,334.55
2018-09-21T03:43:06.245Z,326.50
2018-09-21T03:45:08.506Z,338.43
2018-09-21T03:47:10.780Z,325.22
2018-09-21T03:49:13.079Z,318.23
2018-09-21T03:51:15.367Z,335.10
2018-09-21T03:53:17.654Z,303.60
2018-09-21T03:55:19.963Z,307.52
2018-09-21T03:57:22.261Z,310.08
2018-09-21T03:59:24.505Z,313.80
2018-09-21T04:01:26.767Z,302.45
2018-09-21T04:03:29.066Z,283.15
2018-09-21T04:05:31.327Z,289.98
2018-09-21T04:07:33.585Z,290.18
2018-09-21T04:09:35.879Z,295.57
2018-09-21T04:11:38.168Z,271.02
2018-09-21T04:13:40.419Z,279.52
2018-09-21T04:15:42.715Z,285.48
2018-09-21T04:17:44.996Z,261.00
2018-09-21T04:19:47.252Z,276.90
2018-09-21T04:21:49.580Z,273.20
2018-09-21T04:23:51.883Z,255.72
2018-09-21T04:25:54.179Z,273.43
2018-09-21T04:27:56.444Z,248.80
2018-09-21T04:29:58.733Z,256.73
2018-09-21T04:32:00.992Z,239.40
2018-09-21T04:34:03.278Z,258.77
2018-09-21T04:36:05.551Z,253.15
2018-09-21T04:38:07.840Z,232.70
2018-09-21T04:40:10.119Z,236.68
2018-09-21T04:42:12.374Z,239.85
2018-09-21T04:44:14.636Z,232.32
2018-09-21T04:46:16.942Z,226.82
2018-09-21T04:48:19.180Z,241.30
2018-09-21T04:50:21.451Z,239.32
2018-09-21T04:52:23.774Z,238.50
2018-09-21T04:54:26.015Z,231.25
2018-09-21T04:56:28.338Z,220.63
2018-09-21T04:58:30.598Z,230.77
2018-09-21T05:00:32.864Z,227.10
2018-09-21T05:02:35.166Z,219.97
2018-09-21T05:04:37.432Z,233.10
2018-09-21T05:06:39.915Z,223.10
2018-09-21T05:08:42.179Z,215.45
2018-09-21T05:10:44.452Z,229.32
2018-09-21T05:12:46.740Z,225.20
2018-09-21T05:14:49.035Z,226.75
2018-09-21T05:16:51.291Z,219.93
2018-09-21T05:18:53.598Z,216.27
2018-09-21T05:20:55.868Z,206.32
2018-09-21T05:22:58.132Z,204.25
2018-09-21T05:25:00.436Z,205.67
2018-09-21T05:27:02.688Z,205.55
2018-09-21T05:29:04.988Z,209.72
2018-09-21T05:31:07.260Z,206.95
2018-09-21T05:33:09.507Z,204.78
2018-09-21T05:35:11.880Z,205.40
2018-09-21T05:37:14.100Z,189.95
2018-09-21T05:39:16.397Z,205.55
2018-09-21T05:41:18.672Z,196.78
2018-09-21T05:43:20.938Z,195.05
2018-09-21T05:45:23.234Z,195.95
2018-09-21T05:47:25.513Z,197.22
2018-09-21T05:49:27.768Z,203.60
2018-09-21T05:51:30.056Z,192.82
2018-09-21T05:53:32.304Z,181.18
2018-09-21T05:55:34.609Z,180.25
2018-09-21T05:57:36.863Z,184.70
2018-09-21T05:59:39.122Z,178.47
2018-09-21T06:01:41.399Z,173.68
2018-09-21T06:03:43.696Z,185.03
2018-09-21T06:05:45.996Z,199.27
2018-09-21T06:07:48.303Z,224.85
2018-09-21T06:09:50.954Z,139.95
2018-09-21T06:11:53.239Z,78.30
2018-09-21T06:13:55.552Z,54.60
2018-09-21T06:15:57.835Z,59.83
2018-09-21T06:18:00.081Z,34.10
2018-09-21T06:20:11.935Z,26.45
2018-09-21T06:22:04.618Z,137.88
2018-09-21T06:24:06.913Z,72.05
2018-09-21T06:26:09.218Z,77.67
2018-09-21T06:28:11.488Z,104.67
2018-09-21T06:30:13.744Z,108.95
2018-09-21T06:32:16.065Z,83.58
2018-09-21T06:34:18.343Z,67.30
2018-09-21T06:36:20.631Z,55.33
2018-09-21T06:38:22.886Z,34.23
2018-09-21T06:40:25.167Z,26.20
2018-09-21T06:42:27.516Z,115.35
2018-09-21T06:44:29.748Z,102.65
2018-09-21T06:46:32.057Z,105.67
2018-09-21T06:48:34.347Z,96.17
2018-09-21T06:50:36.665Z,83.80
2018-09-21T06:52:38.956Z,180.57
2018-09-21T06:54:41.255Z,78.78
2018-09-21T06:56:43.585Z,98.10
2018-09-21T06:58:45.890Z,89.13
2018-09-21T07:00:48.161Z,46.85
2018-09-21T07:02:50.426Z,36.28
2018-09-21T07:04:52.710Z,43.45
2018-09-21T07:06:55.000Z,16.73
2018-09-21T07:08:57.246Z,19.60
2018-09-21T07:10:59.523Z,13.80
2018-09-21T07:13:01.803Z,8.95
2018-09-21T07:15:04.096Z,7.05
2018-09-21T07:17:06.427Z,16.85
2018-09-21T07:19:08.761Z,45.80
2018-09-21T07:21:11.132Z,139.28
2018-09-21T07:23:13.405Z,73.85
2018-09-21T07:25:15.667Z,65.90
2018-09-21T07:27:17.922Z,51.02
2018-09-21T07:29:20.229Z,47.43
2018-09-21T07:31:22.517Z,45.05
2018-09-21T07:33:24.791Z,48.00
2018-09-21T07:35:27.063Z,40.90
2018-09-21T07:37:29.338Z,39.58
2018-09-21T07:39:31.613Z,36.48
2018-09-21T07:41:33.911Z,32.08
2018-09-21T07:43:36.195Z,27.85
2018-09-21T07:45:38.451Z,32.45
2018-09-21T07:47:40.755Z,27.02
2018-09-21T07:49:43.055Z,25.17
2018-09-21T07:51:45.309Z,25.68
2018-09-21T07:53:47.560Z,28.60
2018-09-21T07:55:49.851Z,25.62
2018-09-21T07:57:52.169Z,26.37
2018-09-21T07:59:54.446Z,26.70
2018-09-21T08:01:56.700Z,25.90
2018-09-21T08:03:59.011Z,25.15
2018-09-21T08:06:01.259Z,26.55
2018-09-21T08:08:03.505Z,19.37
2018-09-21T08:10:05.831Z,29.02
2018-09-21T08:12:08.081Z,79.95
2018-09-21T08:14:10.381Z,104.83
2018-09-21T08:16:12.679Z,127.38
2018-09-21T08:18:15.157Z,139.50
2018-09-21T08:20:17.405Z,142.00
2018-09-21T08:22:19.683Z,137.62
2018-09-21T08:24:21.941Z,118.00
2018-09-21T08:26:24.280Z,132.82
2018-09-21T08:28:26.502Z,160.25
2018-09-21T08:30:28.767Z,138.68
2018-09-21T08:32:31.060Z,108.47
2018-09-21T08:34:33.336Z,97.57
2018-09-21T08:36:35.603Z,184.90
2018-09-21T08:38:37.904Z,231.07
2018-09-21T08:40:40.165Z,210.50
2018-09-21T08:42:42.423Z,197.87
2018-09-21T08:44:44.715Z,144.93
2018-09-21T08:46:46.994Z,110.83
2018-09-21T08:48:49.271Z,79.65
2018-09-21T08:50:51.553Z,88.52
2018-09-21T08:52:53.808Z,52.40
2018-09-21T08:54:56.133Z,43.60
2018-09-21T08:56:58.403Z,57.33
2018-09-21T08:59:00.715Z,81.80
2018-09-21T09:01:02.969Z,74.10
2018-09-21T09:03:05.337Z,110.15
2018-09-21T09:05:07.573Z,103.12
2018-09-21T09:07:09.875Z,90.45
2018-09-21T09:09:12.136Z,99.28
2018-09-21T09:11:14.387Z,85.95
2018-09-21T09:13:16.706Z,61.95
2018-09-21T09:15:19.009Z,146.62
2018-09-21T09:17:21.298Z,134.25
2018-09-21T09:19:23.604Z,64.58
2018-09-21T09:21:25.828Z,48.02
2018-09-21T09:23:28.111Z,41.23
2018-09-21T09:25:30.400Z,42.67
2018-09-21T09:27:32.705Z,94.30
2018-09-21T09:29:34.967Z,70.03
2018-09-21T09:31:37.232Z,61.98
2018-09-21T09:33:39.504Z,63.65
2018-09-21T09:35:41.785Z,160.85
2018-09-21T09:37:44.824Z,120.30
2018-09-21T09:39:47.076Z,108.65
2018-09-21T09:41:49.384Z,63.70
2018-09-21T09:43:51.646Z,361.00
2018-09-21T09:45:53.909Z,777.05
2018-09-21T09:47:56.239Z,306.10
2018-09-21T09:49:58.490Z,175.68
2018-09-21T09:52:00.743Z,162.92
2018-09-21T09:54:03.054Z,117.53
2018-09-21T09:56:05.313Z,81.00
2018-09-21T09:58:07.617Z,228.07
2018-09-21T10:00:09.933Z,79.72
2018-09-21T10:02:12.210Z,115.17
2018-09-21T10:04:14.499Z,72.60
2018-09-21T10:06:16.831Z,50.33
2018-09-21T10:08:19.083Z,31.10
2018-09-21T10:10:21.370Z,27.07
2018-09-21T10:12:23.606Z,26.10
2018-09-21T10:14:25.894Z,42.30
2018-09-21T10:16:28.204Z,65.10
2018-09-21T10:18:30.503Z,66.62
2018-09-21T10:20:32.808Z,150.72
2018-09-21T10:22:35.063Z,77.42
2018-09-21T10:24:37.342Z,79.12
2018-09-21T10:26:39.663Z,70.97
2018-09-21T10:28:42.049Z,66.75
2018-09-21T10:30:44.162Z,43.10
2018-09-21T10:32:46.464Z,54.67
2018-09-21T10:34:48.758Z,79.60
2018-09-21T10:36:51.034Z,50.45
2018-09-21T10:38:53.280Z,33.95
2018-09-21T10:40:55.570Z,27.80
2018-09-21T10:42:57.841Z,19.25
2018-09-21T10:45:00.138Z,738.83
2018-09-21T10:47:02.452Z,98.47
2018-09-21T10:49:04.706Z,86.55
2018-09-21T10:51:06.980Z,79.25
2018-09-21T10:53:09.240Z,67.92
2018-09-21T10:55:11.551Z,57.17
2018-09-21T10:57:13.856Z,37.83
2018-09-21T10:59:16.141Z,39.50
2018-09-21T11:01:18.459Z,28.42
2018-09-21T11:03:20.787Z,21.00
2018-09-21T11:05:23.028Z,16.40
2018-09-21T11:07:25.294Z,18.48
2018-09-21T11:09:27.584Z,12.18
2018-09-21T11:11:29.835Z,38.50
2018-09-21T11:13:32.133Z,47.10
2018-09-21T11:15:34.407Z,76.70
2018-09-21T11:17:36.677Z,65.67
2018-09-21T11:19:39.003Z,68.57
2018-09-21T11:21:41.258Z,61.60
2018-09-21T11:23:43.544Z,65.47
2018-09-21T11:25:45.842Z,49.50
2018-09-21T11:27:48.145Z,54.45
2018-09-21T11:29:50.431Z,58.70
2018-09-21T11:31:52.727Z,57.55
2018-09-21T11:33:55.001Z,60.73
2018-09-21T11:35:57.295Z,47.93
2018-09-21T11:37:59.575Z,124.70
2018-09-21T11:40:01.869Z,46.37
2018-09-21T11:42:04.198Z,15.93
2018-09-21T11:44:06.491Z,6.95
2018-09-21T11:46:08.834Z,5.78
2018-09-21T11:48:11.027Z,5.20
2018-09-21T11:50:13.323Z,5.17
2018-09-21T11:52:15.565Z,6.30
2018-09-21T11:54:17.861Z,7.00
2018-09-21T11:56:20.103Z,4.97
2018-09-21T11:58:22.397Z,4.08
2018-09-21T12:00:24.653Z,5.83
2018-09-21T12:02:26.929Z,7.17
2018-09-21T12:04:29.177Z,10.32
2018-09-21T12:06:32.248Z,13.45
2018-09-21T12:08:34.532Z,10.75
2018-09-21T12:10:36.889Z,24.20
2018-09-21T12:12:39.535Z,15.65
2018-09-21T12:14:41.843Z,35.23
2018-09-21T12:16:44.169Z,40.52
2018-09-21T12:18:46.433Z,17.85
2018-09-21T12:20:48.729Z,13.62
2018-09-21T12:22:51.031Z,5.08
2018-09-21T12:24:53.252Z,4.83
2018-09-21T12:26:55.533Z,3.37
2018-09-21T12:28:57.819Z,3.45
2018-09-21T12:31:00.085Z,2.40
2018-09-21T12:33:02.391Z,3.40
2018-09-21T12:35:04.647Z,2.62
2018-09-21T12:37:06.919Z,2.92
2018-09-21T12:39:09.189Z,2.35
2018-09-21T12:41:11.470Z,2.22
2018-09-21T12:43:13.741Z,2.00
2018-09-21T12:45:16.091Z,1.80
2018-09-21T12:47:19.265Z,1.98
2018-09-21T12:49:21.552Z,1.50
2018-09-21T12:51:23.827Z,1.87
2018-09-21T12:53:26.061Z,1.80
2018-09-21T12:55:28.364Z,1.50
2018-09-21T12:57:30.643Z,1.65
2018-09-21T12:59:32.913Z,1.67
2018-09-21T13:01:35.208Z,2.12
2018-09-21T13:03:37.450Z,1.52
2018-09-21T13:05:39.739Z,1.25
2018-09-21T13:07:42.047Z,1.42
2018-09-21T13:09:44.305Z,1.60
2018-09-21T13:11:46.577Z,1.87
2018-09-21T13:13:48.831Z,1.40
2018-09-21T13:15:51.093Z,1.30
2018-09-21T13:17:53.399Z,1.35
2018-09-21T13:19:55.647Z,1.15
2018-09-21T13:21:57.931Z,2.50
2018-09-21T13:24:00.201Z,11.12
2018-09-21T13:26:02.492Z,6.90
2018-09-21T13:28:04.771Z,7.85
2018-09-21T13:30:07.012Z,11.85
2018-09-21T13:32:09.301Z,16.82
2018-09-21T13:34:11.580Z,11.80
2018-09-21T13:36:13.907Z,6.60
2018-09-21T13:38:16.216Z,4.80
2018-09-21T13:40:18.466Z,2.70
2018-09-21T13:42:20.756Z,3.40
2018-09-21T13:44:23.060Z,3.40
2018-09-21T13:46:25.334Z,3.20
2018-09-21T13:48:27.643Z,2.80
2018-09-21T13:50:29.886Z,2.37
2018-09-21T13:52:32.144Z,1.67
2018-09-21T13:54:34.437Z,2.27
2018-09-21T13:56:36.670Z,1.90
2018-09-21T13:58:38.928Z,88.65
2018-09-21T14:00:41.219Z,47.38
2018-09-21T14:02:43.517Z,23.45
2018-09-21T14:04:45.837Z,21.95
2018-09-21T14:06:48.087Z,14.63
2018-09-21T14:08:50.362Z,7.28
2018-09-21T14:10:52.638Z,5.80
2018-09-21T14:12:54.917Z,4.03
2018-09-21T14:14:57.206Z,3.52
2018-09-21T14:16:59.434Z,3.60
2018-09-21T14:19:01.739Z,2.90
2018-09-21T14:21:04.013Z,2.90
2018-09-21T14:23:06.266Z,2.98
2018-09-21T14:25:08.539Z,2.70
2018-09-21T14:27:10.815Z,3.20
2018-09-21T14:29:13.117Z,3.10
2018-09-21T14:31:15.379Z,18.85
2018-09-21T14:33:17.649Z,26.82
2018-09-21T14:35:19.940Z,17.77
2018-09-21T14:37:22.221Z,8.53
2018-09-21T14:39:24.499Z,5.42
2018-09-21T14:41:26.762Z,9.15
2018-09-21T14:43:29.030Z,34.65
2018-09-21T14:45:31.325Z,10.20
2018-09-21T14:47:33.593Z,17.50
2018-09-21T14:49:35.916Z,54.53
2018-09-21T14:51:38.213Z,48.75
2018-09-21T14:53:40.487Z,30.23
2018-09-21T14:55:42.796Z,16.32
2018-09-21T14:57:45.134Z,8.95
2018-09-21T14:59:47.395Z,7.72
2018-09-21T15:01:49.666Z,4.75
2018-09-21T15:03:51.944Z,4.42
2018-09-21T15:05:54.214Z,3.77
2018-09-21T15:07:56.471Z,3.08
2018-09-21T15:09:58.715Z,3.17
2018-09-21T15:12:01.006Z,3.20
2018-09-21T15:14:03.269Z,3.17
2018-09-21T15:16:05.505Z,2.70
2018-09-21T15:18:07.784Z,2.80
2018-09-21T15:20:10.018Z,2.75
2018-09-21T15:22:12.336Z,217.28
2018-09-21T15:24:15.570Z,56.75
2018-09-21T15:26:17.878Z,36.30
2018-09-21T15:28:20.125Z,28.98
2018-09-21T15:30:22.412Z,14.68
2018-09-21T15:32:24.704Z,7.47
2018-09-21T15:34:26.964Z,6.28
2018-09-21T15:36:29.268Z,3.15
2018-09-21T15:38:31.517Z,3.12
2018-09-21T15:40:33.820Z,23.77
2018-09-21T15:42:36.090Z,26.45
2018-09-21T15:44:38.391Z,42.50
2018-09-21T15:46:40.674Z,31.12
2018-09-21T15:48:42.939Z,116.42
2018-09-21T15:50:45.225Z,83.75
2018-09-21T15:52:47.597Z,45.28
2018-09-21T15:54:49.846Z,26.50
2018-09-21T15:56:52.129Z,14.30
2018-09-21T15:58:54.479Z,13.45
2018-09-21T16:00:56.711Z,6.58
2018-09-21T16:02:58.987Z,5.50
2018-09-21T16:05:01.238Z,4.03
2018-09-21T16:07:03.545Z,2.35
2018-09-21T16:09:05.779Z,3.20
2018-09-21T16:11:08.080Z,42.40
2018-09-21T16:13:11.019Z,76.15
2018-09-21T16:15:13.297Z,31.00
2018-09-21T16:17:15.612Z,19.40
2018-09-21T16:19:17.893Z,26.07
2018-09-21T16:21:20.149Z,32.55
2018-09-21T16:23:22.416Z,24.92
2018-09-21T16:25:24.703Z,13.32
2018-09-21T16:27:26.973Z,8.45
2018-09-21T16:29:29.273Z,4.85
2018-09-21T16:31:31.561Z,96.35
2018-09-21T16:33:33.827Z,202.43
2018-09-21T16:35:36.156Z,275.75
2018-09-21T16:37:38.417Z,40.12
2018-09-21T16:39:40.701Z,14.98
2018-09-21T16:41:42.991Z,8.58
2018-09-21T16:43:45.269Z,4.58
2018-09-21T16:45:47.549Z,2.90
2018-09-21T16:47:49.797Z,3.22
2018-09-21T16:49:52.032Z,1.90
2018-09-21T16:51:54.325Z,1.42
2018-09-21T16:53:56.919Z,22.35
2018-09-21T16:55:59.149Z,98.65
2018-09-21T16:58:01.500Z,144.13
2018-09-21T17:00:03.732Z,123.28
2018-09-21T17:02:06.041Z,127.67
2018-09-21T17:04:08.350Z,121.17
2018-09-21T17:06:10.584Z,66.40
2018-09-21T17:08:12.860Z,73.33
2018-09-21T17:10:16.127Z,49.30
2018-09-21T17:12:18.423Z,41.58
2018-09-21T17:14:20.681Z,32.63
2018-09-21T17:16:22.991Z,26.40
2018-09-21T17:18:25.276Z,20.20
2018-09-21T17:20:27.527Z,18.23
2018-09-21T17:22:29.815Z,17.27
2018-09-21T17:24:32.111Z,13.80
2018-09-21T17:26:34.418Z,10.30
2018-09-21T17:28:36.681Z,10.18
2018-09-21T17:30:39.131Z,8.15
2018-09-21T17:32:41.633Z,7.92
2018-09-21T17:34:43.890Z,6.37
2018-09-21T17:36:46.163Z,6.50
2018-09-21T17:38:49.099Z,4.62
2018-09-21T17:40:51.344Z,6.92
2018-09-21T17:42:53.579Z,19.42
2018-09-21T17:44:55.852Z,33.75
2018-09-21T17:46:58.152Z,40.60
2018-09-21T17:49:00.440Z,36.45
2018-09-21T17:51:02.682Z,37.38
2018-09-21T17:53:04.962Z,65.50
2018-09-21T17:55:07.220Z,21.73
2018-09-21T17:57:09.508Z,22.20
2018-09-21T17:59:11.760Z,49.05
2018-09-21T18:01:14.071Z,38.45
2018-09-21T18:03:16.342Z,51.60
2018-09-21T18:05:18.641Z,44.20
2018-09-21T18:07:20.894Z,42.20
2018-09-21T18:09:23.176Z,54.35
2018-09-21T18:11:25.470Z,127.07
2018-09-21T18:13:27.738Z,195.38
2018-09-21T18:15:29.992Z,82.80
2018-09-21T18:17:32.306Z,84.35
2018-09-21T18:19:34.964Z,89.40
2018-09-21T18:21:37.224Z,86.95
2018-09-21T18:23:39.496Z,91.78
2018-09-21T18:25:41.905Z,90.15
2018-09-21T18:27:44.091Z,83.45
2018-09-21T18:29:46.393Z,81.30
2018-09-21T18:31:48.649Z,86.32
2018-09-21T18:33:50.892Z,85.07
2018-09-21T18:35:53.204Z,86.17
2018-09-21T18:37:55.458Z,82.22
2018-09-21T18:39:57.711Z,79.72
2018-09-21T18:42:00.037Z,96.57
2018-09-21T18:44:02.308Z,122.33
2018-09-21T18:46:04.601Z,130.52
2018-09-21T18:48:06.876Z,154.90
2018-09-21T18:50:09.188Z,162.27
2018-09-21T18:52:11.435Z,161.85
2018-09-21T18:54:13.719Z,164.90
2018-09-21T18:56:16.028Z,195.38
2018-09-21T18:58:18.302Z,161.65
2018-09-21T19:00:20.549Z,174.23
2018-09-21T19:02:22.855Z,184.45
2018-09-21T19:04:25.128Z,197.80
2018-09-21T19:06:27.593Z,201.07
2018-09-21T19:08:29.852Z,175.75
2018-09-21T19:10:32.154Z,148.50
2018-09-21T19:12:34.467Z,158.40
2018-09-21T19:14:36.773Z,132.75
2018-09-21T19:16:39.054Z,134.18
2018-09-21T19:18:41.357Z,381.55
2018-09-21T19:20:43.645Z,282.55
2018-09-21T19:22:45.947Z,206.57
2018-09-21T19:24:48.216Z,212.02
2018-09-21T19:26:50.468Z,258.98
2018-09-21T19:28:52.791Z,220.33
2018-09-21T19:30:55.038Z,260.13
2018-09-21T19:32:57.361Z,240.65
2018-09-21T19:34:59.701Z,311.95
2018-09-21T19:37:01.953Z,691.73
2018-09-21T19:39:04.245Z,457.35
2018-09-21T19:41:06.518Z,243.00
2018-09-21T19:43:08.895Z,263.43
2018-09-21T19:45:11.765Z,232.70
2018-09-21T19:47:13.874Z,210.43
2018-09-21T19:49:16.172Z,251.35
2018-09-21T19:51:18.434Z,204.90
2018-09-21T19:53:20.691Z,216.57
2018-09-21T19:55:22.994Z,212.25
2018-09-21T19:57:25.288Z,265.18
2018-09-21T19:59:27.586Z,257.52
2018-09-21T20:01:29.856Z,266.08
2018-09-21T20:03:32.166Z,272.95
2018-09-21T20:05:34.443Z,288.62
2018-09-21T20:07:36.721Z,320.82
2018-09-21T20:09:39.052Z,352.87
2018-09-21T20:11:41.309Z,336.18
2018-09-21T20:13:43.567Z,273.90
2018-09-21T20:15:45.895Z,286.32
2018-09-21T20:17:48.166Z,278.32
2018-09-21T20:19:50.436Z,279.70
2018-09-21T20:21:52.716Z,315.10
2018-09-21T20:23:55.023Z,349.12
2018-09-21T20:25:57.325Z,282.17
2018-09-21T20:27:59.592Z,335.23
2018-09-21T20:30:01.907Z,450.90
2018-09-21T20:32:04.156Z,344.05
2018-09-21T20:34:06.440Z,321.82
2018-09-21T20:36:08.729Z,321.10
2018-09-21T20:38:10.985Z,353.00
2018-09-21T20:40:13.279Z,335.50
2018-09-21T20:42:15.587Z,318.70
2018-09-21T20:44:17.913Z,304.50
2018-09-21T20:46:20.252Z,287.57
2018-09-21T20:48:22.528Z,275.30
2018-09-21T20:50:24.791Z,253.98
2018-09-21T20:52:27.075Z,243.52
2018-09-21T20:54:29.337Z,282.15
2018-09-21T20:56:31.629Z,462.08
2018-09-21T20:58:33.895Z,362.50
2018-09-21T21:00:36.206Z,445.40
2018-09-21T21:02:38.521Z,509.30
2018-09-21T21:04:40.797Z,650.55
2018-09-21T21:06:43.105Z,792.65
2018-09-21T21:08:45.378Z,624.35
2018-09-21T21:10:47.650Z,619.75
2018-09-21T21:12:49.959Z,605.83
2018-09-21T21:14:52.262Z,577.52
2018-09-21T21:16:54.506Z,584.10
2018-09-21T21:18:56.779Z,542.80
2018-09-21T21:20:59.058Z,539.02
2018-09-21T21:23:01.356Z,527.33
2018-09-21T21:25:03.659Z,523.52
2018-09-21T21:27:05.921Z,495.77
2018-09-21T21:29:08.241Z,478.82
2018-09-21T21:31:10.497Z,455.57
2018-09-21T21:33:12.768Z,467.77
2018-09-21T21:35:15.064Z,445.75
2018-09-21T21:37:17.306Z,407.92
2018-09-21T21:39:19.626Z,462.42
2018-09-21T21:41:21.917Z,604.12
2018-09-21T21:43:24.228Z,612.70
2018-09-21T21:45:26.522Z,595.02
2018-09-21T21:47:28.795Z,562.75
2018-09-21T21:49:31.070Z,580.67
2018-09-21T21:51:33.324Z,577.70
2018-09-21T21:53:35.616Z,554.45
2018-09-21T21:55:37.869Z,538.45
2018-09-21T21:57:40.190Z,521.72
2018-09-21T21:59:42.489Z,523.55
2018-09-21T22:01:44.797Z,515.60
2018-09-21T22:03:47.084Z,523.78
2018-09-21T22:05:49.348Z,482.20
2018-09-21T22:07:51.627Z,477.15
2018-09-21T22:09:53.909Z,472.87
2018-09-21T22:11:56.171Z,497.95
2018-09-21T22:13:58.459Z,753.20
2018-09-21T22:16:00.731Z,707.90
2018-09-21T22:18:03.048Z,633.15
2018-09-21T22:20:05.304Z,576.82
2018-09-21T22:22:07.560Z,570.90
2018-09-21T22:24:09.843Z,556.33
2018-09-21T22:26:12.158Z,549.83
2018-09-21T22:28:14.447Z,511.85
2018-09-21T22:30:16.732Z,706.37
2018-09-21T22:32:18.989Z,716.67
2018-09-21T22:34:21.298Z,645.80
2018-09-21T22:36:23.561Z,613.83
2018-09-21T22:38:25.858Z,604.27
2018-09-21T22:40:28.259Z,581.65
2018-09-21T22:42:30.509Z,584.85
2018-09-21T22:44:32.815Z,607.73
2018-09-21T22:46:35.093Z,597.37
2018-09-21T22:48:37.383Z,565.75
2018-09-21T22:50:39.691Z,655.67
2018-09-21T22:52:41.952Z,676.77
2018-09-21T22:54:44.210Z,717.92
2018-09-21T22:56:46.512Z,675.10
2018-09-21T22:58:48.805Z,639.23
2018-09-21T23:00:51.078Z,604.87
2018-09-21T23:02:53.407Z,609.98
2018-09-21T23:04:55.699Z,611.75
2018-09-21T23:06:57.967Z,589.60
2018-09-21T23:09:00.246Z,579.72
2018-09-21T23:11:02.521Z,608.48
2018-09-21T23:13:04.803Z,601.30
2018-09-21T23:15:07.075Z,697.25
2018-09-21T23:17:09.351Z,724.60
2018-09-21T23:19:11.619Z,701.08
2018-09-21T23:21:13.926Z,678.20
2018-09-21T23:23:16.173Z,654.90
2018-09-21T23:25:18.434Z,665.08
2018-09-21T23:27:20.720Z,645.98
2018-09-21T23:29:23.010Z,768.05
2018-09-21T23:31:25.299Z,797.98
2018-09-21T23:33:27.555Z,774.33
2018-09-21T23:35:29.862Z,764.52
2018-09-21T23:37:32.153Z,754.65
2018-09-21T23:39:34.425Z,747.30
2018-09-21T23:41:36.679Z,735.92
2018-09-21T23:43:38.971Z,735.42
2018-09-21T23:45:41.230Z,714.92
2018-09-21T23:47:43.724Z,694.15
2018-09-21T23:49:46.039Z,688.95
2018-09-21T23:51:48.288Z,683.85
2018-09-21T23:53:50.555Z,672.83
2018-09-21T23:55:52.835Z,671.08
2018-09-21T23:57:55.093Z,675.38
2018-09-21T23:59:57.349Z,658.12
